sensor_id;sensor_type;location;lat;lon;timestamp;temperature;humidity
29281;DHT22;25048;49.590;11.026;2023-07-02T00:00:20;18.40;99.90
29281;DHT22;25048;49.590;11.026;2023-07-02T00:02:48;18.40;99.90
29281;DHT22;25048;49.590;11.026;2023-07-02T00:05:15;18.40;99.90
29281;DHT22;25048;49.590;11.026;2023-07-02T00:07:44;18.30;99.90
29281;DHT22;25048;49.590;11.026;2023-07-02T00:10:11;18.30;99.90
29281;DHT22;25048;49.590;11.026;2023-07-02T00:12:39;18.40;99.90
29281;DHT22;25048;49.590;11.026;2023-07-02T00:15:07;18.30;99.90
29281;DHT22;25048;49.590;11.026;2023-07-02T00:17:34;18.30;99.90
29281;DHT22;25048;49.590;11.026;2023-07-02T00:20:03;18.30;99.90
29281;DHT22;25048;49.590;11.026;2023-07-02T00:22:31;18.30;99.90
29281;DHT22;25048;49.590;11.026;2023-07-02T00:25:00;18.20;99.90
29281;DHT22;25048;49.590;11.026;2023-07-02T00:27:28;18.20;99.90
29281;DHT22;25048;49.590;11.026;2023-07-02T00:29:55;18.10;99.90
29281;DHT22;25048;49.590;11.026;2023-07-02T00:32:23;18.00;99.90
29281;DHT22;25048;49.590;11.026;2023-07-02T00:34:50;18.00;99.90
29281;DHT22;25048;49.590;11.026;2023-07-02T00:37:18;18.00;99.90
29281;DHT22;25048;49.590;11.026;2023-07-02T00:39:45;17.90;99.90
29281;DHT22;25048;49.590;11.026;2023-07-02T00:42:14;17.90;99.90
29281;DHT22;25048;49.590;11.026;2023-07-02T00:44:42;17.90;99.90
29281;DHT22;25048;49.590;11.026;2023-07-02T00:47:12;17.80;99.90
29281;DHT22;25048;49.590;11.026;2023-07-02T00:49:40;17.80;99.90
29281;DHT22;25048;49.590;11.026;2023-07-02T00:52:08;17.70;99.90
29281;DHT22;25048;49.590;11.026;2023-07-02T00:54:35;17.70;99.90
29281;DHT22;25048;49.590;11.026;2023-07-02T00:57:03;17.70;99.90
29281;DHT22;25048;49.590;11.026;2023-07-02T00:59:33;17.70;99.90
29281;DHT22;25048;49.590;11.026;2023-07-02T01:02:02;17.60;99.90
29281;DHT22;25048;49.590;11.026;2023-07-02T01:04:31;17.60;99.90
29281;DHT22;25048;49.590;11.026;2023-07-02T01:06:59;17.70;99.90
29281;DHT22;25048;49.590;11.026;2023-07-02T01:09:27;17.70;99.90
29281;DHT22;25048;49.590;11.026;2023-07-02T01:12:05;17.60;99.90
29281;DHT22;25048;49.590;11.026;2023-07-02T01:14:36;17.70;99.90
29281;DHT22;25048;49.590;11.026;2023-07-02T01:17:06;17.60;99.90
29281;DHT22;25048;49.590;11.026;2023-07-02T01:19:42;17.70;99.90
29281;DHT22;25048;49.590;11.026;2023-07-02T01:22:10;17.70;99.90
29281;DHT22;25048;49.590;11.026;2023-07-02T01:24:41;17.70;99.90
29281;DHT22;25048;49.590;11.026;2023-07-02T01:27:09;17.80;99.90
29281;DHT22;25048;49.590;11.026;2023-07-02T01:29:36;17.80;99.90
29281;DHT22;25048;49.590;11.026;2023-07-02T01:32:04;17.80;99.90
29281;DHT22;25048;49.590;11.026;2023-07-02T01:34:32;17.80;99.90
29281;DHT22;25048;49.590;11.026;2023-07-02T01:37:00;17.80;99.90
29281;DHT22;25048;49.590;11.026;2023-07-02T01:39:28;17.80;99.90
29281;DHT22;25048;49.590;11.026;2023-07-02T01:44:36;17.80;99.90
29281;DHT22;25048;49.590;11.026;2023-07-02T01:47:04;17.80;99.90
29281;DHT22;25048;49.590;11.026;2023-07-02T01:49:32;17.80;99.90
29281;DHT22;25048;49.590;11.026;2023-07-02T01:51:59;17.80;99.90
29281;DHT22;25048;49.590;11.026;2023-07-02T01:54:27;17.80;99.90
29281;DHT22;25048;49.590;11.026;2023-07-02T01:56:55;17.80;99.90
29281;DHT22;25048;49.590;11.026;2023-07-02T01:59:23;17.80;99.90
29281;DHT22;25048;49.590;11.026;2023-07-02T02:01:51;17.80;99.90
29281;DHT22;25048;49.590;11.026;2023-07-02T02:04:19;17.80;99.90
29281;DHT22;25048;49.590;11.026;2023-07-02T02:06:46;17.80;99.90
29281;DHT22;25048;49.590;11.026;2023-07-02T02:09:14;17.70;99.90
29281;DHT22;25048;49.590;11.026;2023-07-02T02:11:44;17.80;99.90
29281;DHT22;25048;49.590;11.026;2023-07-02T02:14:12;17.70;99.90
29281;DHT22;25048;49.590;11.026;2023-07-02T02:16:39;17.70;99.90
29281;DHT22;25048;49.590;11.026;2023-07-02T02:19:08;17.60;99.90
29281;DHT22;25048;49.590;11.026;2023-07-02T02:21:36;17.60;99.90
29281;DHT22;25048;49.590;11.026;2023-07-02T02:24:03;17.50;99.90
29281;DHT22;25048;49.590;11.026;2023-07-02T02:26:31;17.50;99.90
29281;DHT22;25048;49.590;11.026;2023-07-02T02:28:58;17.40;99.90
29281;DHT22;25048;49.590;11.026;2023-07-02T02:31:26;17.40;99.90
29281;DHT22;25048;49.590;11.026;2023-07-02T02:33:54;17.40;99.90
29281;DHT22;25048;49.590;11.026;2023-07-02T02:36:22;17.30;99.90
29281;DHT22;25048;49.590;11.026;2023-07-02T02:38:49;17.30;99.90
29281;DHT22;25048;49.590;11.026;2023-07-02T02:41:17;17.30;99.90
29281;DHT22;25048;49.590;11.026;2023-07-02T02:43:44;17.20;99.90
29281;DHT22;25048;49.590;11.026;2023-07-02T02:46:12;17.20;99.90
29281;DHT22;25048;49.590;11.026;2023-07-02T02:48:40;17.20;99.90
29281;DHT22;25048;49.590;11.026;2023-07-02T02:51:07;17.10;99.90
29281;DHT22;25048;49.590;11.026;2023-07-02T02:53:35;17.10;99.90
29281;DHT22;25048;49.590;11.026;2023-07-02T02:56:02;17.10;99.90
29281;DHT22;25048;49.590;11.026;2023-07-02T02:58:30;17.00;99.90
29281;DHT22;25048;49.590;11.026;2023-07-02T03:00:57;17.00;99.90
29281;DHT22;25048;49.590;11.026;2023-07-02T03:03:25;17.00;99.90
29281;DHT22;25048;49.590;11.026;2023-07-02T03:05:52;17.00;99.90
29281;DHT22;25048;49.590;11.026;2023-07-02T03:08:20;17.00;99.90
29281;DHT22;25048;49.590;11.026;2023-07-02T03:10:47;16.90;99.90
29281;DHT22;25048;49.590;11.026;2023-07-02T03:13:15;16.90;99.90
29281;DHT22;25048;49.590;11.026;2023-07-02T03:15:42;17.00;99.90
29281;DHT22;25048;49.590;11.026;2023-07-02T03:18:10;16.90;99.90
29281;DHT22;25048;49.590;11.026;2023-07-02T03:20:37;16.90;99.90
29281;DHT22;25048;49.590;11.026;2023-07-02T03:23:05;16.90;99.90
29281;DHT22;25048;49.590;11.026;2023-07-02T03:25:32;16.90;99.90
29281;DHT22;25048;49.590;11.026;2023-07-02T03:28:00;16.90;99.90
29281;DHT22;25048;49.590;11.026;2023-07-02T03:30:27;16.90;99.90
29281;DHT22;25048;49.590;11.026;2023-07-02T03:32:55;16.90;99.90
29281;DHT22;25048;49.590;11.026;2023-07-02T03:35:22;16.90;99.90
29281;DHT22;25048;49.590;11.026;2023-07-02T03:37:50;16.80;99.90
29281;DHT22;25048;49.590;11.026;2023-07-02T03:40:17;16.90;99.90
29281;DHT22;25048;49.590;11.026;2023-07-02T03:42:45;16.90;99.90
29281;DHT22;25048;49.590;11.026;2023-07-02T03:45:12;16.90;99.90
29281;DHT22;25048;49.590;11.026;2023-07-02T03:47:40;16.90;99.90
29281;DHT22;25048;49.590;11.026;2023-07-02T03:50:09;16.90;99.90
29281;DHT22;25048;49.590;11.026;2023-07-02T03:52:36;16.90;99.90
29281;DHT22;25048;49.590;11.026;2023-07-02T03:55:04;16.90;99.90
29281;DHT22;25048;49.590;11.026;2023-07-02T03:57:32;16.90;99.90
29281;DHT22;25048;49.590;11.026;2023-07-02T04:00:00;16.90;99.90
29281;DHT22;25048;49.590;11.026;2023-07-02T04:02:27;16.90;99.90
29281;DHT22;25048;49.590;11.026;2023-07-02T04:04:55;16.90;99.90
29281;DHT22;25048;49.590;11.026;2023-07-02T04:07:22;16.90;99.90
29281;DHT22;25048;49.590;11.026;2023-07-02T04:09:50;16.90;99.90
29281;DHT22;25048;49.590;11.026;2023-07-02T04:12:17;16.90;99.90
29281;DHT22;25048;49.590;11.026;2023-07-02T04:14:45;16.90;99.90
29281;DHT22;25048;49.590;11.026;2023-07-02T04:17:12;16.90;99.90
29281;DHT22;25048;49.590;11.026;2023-07-02T04:19:40;16.90;99.90
29281;DHT22;25048;49.590;11.026;2023-07-02T04:22:07;16.90;99.90
29281;DHT22;25048;49.590;11.026;2023-07-02T04:24:35;16.90;99.90
29281;DHT22;25048;49.590;11.026;2023-07-02T04:27:02;16.90;99.90
29281;DHT22;25048;49.590;11.026;2023-07-02T04:29:30;16.90;99.90
29281;DHT22;25048;49.590;11.026;2023-07-02T04:31:57;16.90;99.90
29281;DHT22;25048;49.590;11.026;2023-07-02T04:34:25;17.00;99.90
29281;DHT22;25048;49.590;11.026;2023-07-02T04:36:52;17.00;99.90
29281;DHT22;25048;49.590;11.026;2023-07-02T04:39:20;17.00;99.90
29281;DHT22;25048;49.590;11.026;2023-07-02T04:41:47;17.00;99.90
29281;DHT22;25048;49.590;11.026;2023-07-02T04:44:17;17.00;99.90
29281;DHT22;25048;49.590;11.026;2023-07-02T04:46:44;17.10;99.90
29281;DHT22;25048;49.590;11.026;2023-07-02T04:49:12;17.10;99.90
29281;DHT22;25048;49.590;11.026;2023-07-02T04:51:39;17.20;99.90
29281;DHT22;25048;49.590;11.026;2023-07-02T04:54:07;17.20;99.90
29281;DHT22;25048;49.590;11.026;2023-07-02T04:56:34;17.20;99.90
29281;DHT22;25048;49.590;11.026;2023-07-02T04:59:02;17.20;99.90
29281;DHT22;25048;49.590;11.026;2023-07-02T05:01:30;17.30;99.90
29281;DHT22;25048;49.590;11.026;2023-07-02T05:03:57;17.30;99.90
29281;DHT22;25048;49.590;11.026;2023-07-02T05:06:25;17.30;99.90
29281;DHT22;25048;49.590;11.026;2023-07-02T05:08:52;17.30;99.90
29281;DHT22;25048;49.590;11.026;2023-07-02T05:11:20;17.40;99.90
29281;DHT22;25048;49.590;11.026;2023-07-02T05:13:47;17.40;99.90
29281;DHT22;25048;49.590;11.026;2023-07-02T05:16:15;17.40;99.90
29281;DHT22;25048;49.590;11.026;2023-07-02T05:18:42;17.50;99.90
29281;DHT22;25048;49.590;11.026;2023-07-02T05:21:10;17.60;99.90
29281;DHT22;25048;49.590;11.026;2023-07-02T05:23:38;17.60;99.90
29281;DHT22;25048;49.590;11.026;2023-07-02T05:26:05;17.60;99.90
29281;DHT22;25048;49.590;11.026;2023-07-02T05:28:33;17.70;99.90
29281;DHT22;25048;49.590;11.026;2023-07-02T05:31:00;17.70;99.90
29281;DHT22;25048;49.590;11.026;2023-07-02T05:33:28;17.70;99.90
29281;DHT22;25048;49.590;11.026;2023-07-02T05:35:57;17.70;99.90
29281;DHT22;25048;49.590;11.026;2023-07-02T05:38:25;17.70;99.90
29281;DHT22;25048;49.590;11.026;2023-07-02T05:40:53;17.80;99.90
29281;DHT22;25048;49.590;11.026;2023-07-02T05:43:20;17.80;99.90
29281;DHT22;25048;49.590;11.026;2023-07-02T05:45:49;17.80;99.90
29281;DHT22;25048;49.590;11.026;2023-07-02T05:48:17;17.80;99.90
29281;DHT22;25048;49.590;11.026;2023-07-02T05:50:44;17.80;99.90
29281;DHT22;25048;49.590;11.026;2023-07-02T05:53:12;17.80;99.90
29281;DHT22;25048;49.590;11.026;2023-07-02T05:55:40;17.90;99.90
29281;DHT22;25048;49.590;11.026;2023-07-02T05:58:08;17.90;99.90
29281;DHT22;25048;49.590;11.026;2023-07-02T06:00:35;18.00;99.90
29281;DHT22;25048;49.590;11.026;2023-07-02T06:03:03;18.10;99.90
29281;DHT22;25048;49.590;11.026;2023-07-02T06:05:30;18.00;99.90
29281;DHT22;25048;49.590;11.026;2023-07-02T06:07:58;18.10;99.90
29281;DHT22;25048;49.590;11.026;2023-07-02T06:10:25;18.20;99.90
29281;DHT22;25048;49.590;11.026;2023-07-02T06:12:53;18.20;99.90
29281;DHT22;25048;49.590;11.026;2023-07-02T06:15:20;18.30;99.90
29281;DHT22;25048;49.590;11.026;2023-07-02T06:17:48;18.40;99.90
29281;DHT22;25048;49.590;11.026;2023-07-02T06:20:15;18.40;99.90
29281;DHT22;25048;49.590;11.026;2023-07-02T06:22:43;18.50;99.90
29281;DHT22;25048;49.590;11.026;2023-07-02T06:25:10;18.50;99.90
29281;DHT22;25048;49.590;11.026;2023-07-02T06:27:38;18.40;99.90
29281;DHT22;25048;49.590;11.026;2023-07-02T06:30:06;18.40;99.90
29281;DHT22;25048;49.590;11.026;2023-07-02T06:32:34;18.40;99.90
29281;DHT22;25048;49.590;11.026;2023-07-02T06:35:01;18.50;99.90
29281;DHT22;25048;49.590;11.026;2023-07-02T06:37:29;18.70;99.90
29281;DHT22;25048;49.590;11.026;2023-07-02T06:39:56;18.80;99.90
29281;DHT22;25048;49.590;11.026;2023-07-02T06:42:25;18.80;99.90
29281;DHT22;25048;49.590;11.026;2023-07-02T06:44:52;18.80;99.90
29281;DHT22;25048;49.590;11.026;2023-07-02T06:47:20;18.70;99.90
29281;DHT22;25048;49.590;11.026;2023-07-02T06:49:47;18.60;99.90
29281;DHT22;25048;49.590;11.026;2023-07-02T06:52:15;18.60;99.90
29281;DHT22;25048;49.590;11.026;2023-07-02T06:54:42;18.80;99.90
29281;DHT22;25048;49.590;11.026;2023-07-02T06:57:10;19.10;99.90
29281;DHT22;25048;49.590;11.026;2023-07-02T06:59:37;19.20;99.90
29281;DHT22;25048;49.590;11.026;2023-07-02T07:02:05;19.40;99.90
29281;DHT22;25048;49.590;11.026;2023-07-02T07:04:33;19.70;99.90
29281;DHT22;25048;49.590;11.026;2023-07-02T07:07:04;19.90;99.90
29281;DHT22;25048;49.590;11.026;2023-07-02T07:09:31;20.10;99.90
29281;DHT22;25048;49.590;11.026;2023-07-02T07:11:59;20.10;99.90
29281;DHT22;25048;49.590;11.026;2023-07-02T07:14:26;20.10;99.90
29281;DHT22;25048;49.590;11.026;2023-07-02T07:16:54;20.30;99.90
29281;DHT22;25048;49.590;11.026;2023-07-02T07:19:21;20.30;99.90
29281;DHT22;25048;49.590;11.026;2023-07-02T07:21:49;20.20;99.90
29281;DHT22;25048;49.590;11.026;2023-07-02T07:24:16;20.40;99.90
29281;DHT22;25048;49.590;11.026;2023-07-02T07:26:44;20.60;99.90
29281;DHT22;25048;49.590;11.026;2023-07-02T07:29:12;20.70;99.90
29281;DHT22;25048;49.590;11.026;2023-07-02T07:31:40;20.70;99.90
29281;DHT22;25048;49.590;11.026;2023-07-02T07:34:07;20.80;99.90
29281;DHT22;25048;49.590;11.026;2023-07-02T07:36:41;20.70;99.90
29281;DHT22;25048;49.590;11.026;2023-07-02T07:39:08;20.70;99.90
29281;DHT22;25048;49.590;11.026;2023-07-02T07:41:36;20.80;99.90
29281;DHT22;25048;49.590;11.026;2023-07-02T07:44:03;20.70;99.90
29281;DHT22;25048;49.590;11.026;2023-07-02T07:46:31;20.60;99.90
29281;DHT22;25048;49.590;11.026;2023-07-02T07:48:58;20.40;99.90
29281;DHT22;25048;49.590;11.026;2023-07-02T07:51:26;20.10;99.90
29281;DHT22;25048;49.590;11.026;2023-07-02T07:53:54;20.00;99.90
29281;DHT22;25048;49.590;11.026;2023-07-02T07:56:21;20.00;99.90
29281;DHT22;25048;49.590;11.026;2023-07-02T07:58:49;20.30;99.90
29281;DHT22;25048;49.590;11.026;2023-07-02T08:01:16;20.50;99.90
29281;DHT22;25048;49.590;11.026;2023-07-02T08:03:44;20.50;99.90
29281;DHT22;25048;49.590;11.026;2023-07-02T08:06:11;20.70;99.90
29281;DHT22;25048;49.590;11.026;2023-07-02T08:08:39;20.90;99.90
29281;DHT22;25048;49.590;11.026;2023-07-02T08:11:06;21.20;99.90
29281;DHT22;25048;49.590;11.026;2023-07-02T08:13:34;21.60;99.90
29281;DHT22;25048;49.590;11.026;2023-07-02T08:16:01;21.70;99.90
29281;DHT22;25048;49.590;11.026;2023-07-02T08:18:29;21.60;99.90
29281;DHT22;25048;49.590;11.026;2023-07-02T08:20:56;21.50;99.90
29281;DHT22;25048;49.590;11.026;2023-07-02T08:23:24;21.30;99.90
29281;DHT22;25048;49.590;11.026;2023-07-02T08:25:51;21.00;99.90
29281;DHT22;25048;49.590;11.026;2023-07-02T08:28:19;20.80;99.90
29281;DHT22;25048;49.590;11.026;2023-07-02T08:30:47;20.70;99.90
29281;DHT22;25048;49.590;11.026;2023-07-02T08:33:14;20.60;99.90
29281;DHT22;25048;49.590;11.026;2023-07-02T08:35:42;21.00;99.90
29281;DHT22;25048;49.590;11.026;2023-07-02T08:38:09;21.30;99.90
29281;DHT22;25048;49.590;11.026;2023-07-02T08:40:37;21.80;99.90
29281;DHT22;25048;49.590;11.026;2023-07-02T08:43:04;21.80;99.90
29281;DHT22;25048;49.590;11.026;2023-07-02T08:45:32;21.70;99.90
29281;DHT22;25048;49.590;11.026;2023-07-02T08:48:00;21.60;99.90
29281;DHT22;25048;49.590;11.026;2023-07-02T08:50:28;21.80;99.90
29281;DHT22;25048;49.590;11.026;2023-07-02T08:52:56;21.80;99.90
29281;DHT22;25048;49.590;11.026;2023-07-02T08:55:23;21.70;99.90
29281;DHT22;25048;49.590;11.026;2023-07-02T08:57:53;21.60;99.90
29281;DHT22;25048;49.590;11.026;2023-07-02T09:00:21;21.60;99.90
29281;DHT22;25048;49.590;11.026;2023-07-02T09:02:49;21.60;99.90
29281;DHT22;25048;49.590;11.026;2023-07-02T09:05:16;21.80;99.90
29281;DHT22;25048;49.590;11.026;2023-07-02T09:07:48;21.70;99.90
29281;DHT22;25048;49.590;11.026;2023-07-02T09:10:30;21.90;99.90
29281;DHT22;25048;49.590;11.026;2023-07-02T09:13:08;22.10;99.90
29281;DHT22;25048;49.590;11.026;2023-07-02T09:15:40;22.60;99.90
29281;DHT22;25048;49.590;11.026;2023-07-02T09:18:18;23.10;99.90
29281;DHT22;25048;49.590;11.026;2023-07-02T09:20:46;23.30;99.70
29281;DHT22;25048;49.590;11.026;2023-07-02T09:23:14;23.20;99.50
29281;DHT22;25048;49.590;11.026;2023-07-02T09:25:41;23.00;98.30
29281;DHT22;25048;49.590;11.026;2023-07-02T09:28:20;22.80;98.70
29281;DHT22;25048;49.590;11.026;2023-07-02T09:30:55;22.80;99.80
29281;DHT22;25048;49.590;11.026;2023-07-02T09:33:27;23.20;98.80
29281;DHT22;25048;49.590;11.026;2023-07-02T09:35:55;23.30;98.30
29281;DHT22;25048;49.590;11.026;2023-07-02T09:38:23;23.20;98.20
29281;DHT22;25048;49.590;11.026;2023-07-02T09:40:52;23.30;99.50
29281;DHT22;25048;49.590;11.026;2023-07-02T09:43:21;23.50;97.90
29281;DHT22;25048;49.590;11.026;2023-07-02T09:45:50;23.30;97.70
29281;DHT22;25048;49.590;11.026;2023-07-02T09:48:20;23.40;97.40
29281;DHT22;25048;49.590;11.026;2023-07-02T09:50:50;23.30;96.80
29281;DHT22;25048;49.590;11.026;2023-07-02T09:53:17;23.30;97.30
29281;DHT22;25048;49.590;11.026;2023-07-02T09:55:45;23.30;97.10
29281;DHT22;25048;49.590;11.026;2023-07-02T09:58:12;23.50;97.30
29281;DHT22;25048;49.590;11.026;2023-07-02T10:00:41;23.80;97.70
29281;DHT22;25048;49.590;11.026;2023-07-02T10:03:09;24.10;96.90
29281;DHT22;25048;49.590;11.026;2023-07-02T10:05:37;24.00;96.70
29281;DHT22;25048;49.590;11.026;2023-07-02T10:08:14;24.00;95.50
29281;DHT22;25048;49.590;11.026;2023-07-02T10:10:44;23.90;95.40
29281;DHT22;25048;49.590;11.026;2023-07-02T10:13:11;23.80;95.50
29281;DHT22;25048;49.590;11.026;2023-07-02T10:15:39;23.60;96.20
29281;DHT22;25048;49.590;11.026;2023-07-02T10:18:08;23.40;96.20
29281;DHT22;25048;49.590;11.026;2023-07-02T10:20:40;23.30;96.20
29281;DHT22;25048;49.590;11.026;2023-07-02T10:23:09;23.20;97.10
29281;DHT22;25048;49.590;11.026;2023-07-02T10:25:38;23.30;97.40
29281;DHT22;25048;49.590;11.026;2023-07-02T10:28:16;23.40;97.40
29281;DHT22;25048;49.590;11.026;2023-07-02T10:30:46;23.50;96.90
29281;DHT22;25048;49.590;11.026;2023-07-02T10:33:15;23.40;96.20
29281;DHT22;25048;49.590;11.026;2023-07-02T10:35:46;23.40;96.80
29281;DHT22;25048;49.590;11.026;2023-07-02T10:38:21;23.40;95.90
29281;DHT22;25048;49.590;11.026;2023-07-02T10:40:45;23.40;96.20
29281;DHT22;25048;49.590;11.026;2023-07-02T10:43:13;23.40;94.90
29281;DHT22;25048;49.590;11.026;2023-07-02T10:45:40;23.60;95.90
29281;DHT22;25048;49.590;11.026;2023-07-02T10:48:11;23.90;95.70
29281;DHT22;25048;49.590;11.026;2023-07-02T10:50:38;24.40;95.10
29281;DHT22;25048;49.590;11.026;2023-07-02T10:53:06;24.80;94.10
29281;DHT22;25048;49.590;11.026;2023-07-02T10:55:33;25.30;94.00
29281;DHT22;25048;49.590;11.026;2023-07-02T10:58:09;25.60;92.80
29281;DHT22;25048;49.590;11.026;2023-07-02T11:00:47;25.60;91.40
29281;DHT22;25048;49.590;11.026;2023-07-02T11:03:19;25.30;91.90
29281;DHT22;25048;49.590;11.026;2023-07-02T11:05:48;25.40;92.30
29281;DHT22;25048;49.590;11.026;2023-07-02T11:08:16;25.40;93.50
29281;DHT22;25048;49.590;11.026;2023-07-02T11:10:44;25.40;90.50
29281;DHT22;25048;49.590;11.026;2023-07-02T11:13:19;25.30;90.30
29281;DHT22;25048;49.590;11.026;2023-07-02T11:15:47;25.30;90.30
29281;DHT22;25048;49.590;11.026;2023-07-02T11:18:16;25.70;91.40
29281;DHT22;25048;49.590;11.026;2023-07-02T11:20:46;25.70;90.80
29281;DHT22;25048;49.590;11.026;2023-07-02T11:23:22;25.70;91.20
29281;DHT22;25048;49.590;11.026;2023-07-02T11:26:02;25.90;90.50
29281;DHT22;25048;49.590;11.026;2023-07-02T11:28:28;26.10;83.70
29281;DHT22;25048;49.590;11.026;2023-07-02T11:30:57;26.00;82.60
29281;DHT22;25048;49.590;11.026;2023-07-02T11:33:37;26.00;82.80
29281;DHT22;25048;49.590;11.026;2023-07-02T11:36:06;25.80;82.50
29281;DHT22;25048;49.590;11.026;2023-07-02T11:38:36;25.50;83.70
29281;DHT22;25048;49.590;11.026;2023-07-02T11:41:04;25.50;85.40
29281;DHT22;25048;49.590;11.026;2023-07-02T11:43:32;25.90;85.10
29281;DHT22;25048;49.590;11.026;2023-07-02T11:46:01;26.20;81.20
29281;DHT22;25048;49.590;11.026;2023-07-02T11:48:28;26.30;80.50
29281;DHT22;25048;49.590;11.026;2023-07-02T11:50:56;26.60;78.60
29281;DHT22;25048;49.590;11.026;2023-07-02T11:53:23;27.00;79.90
29281;DHT22;25048;49.590;11.026;2023-07-02T11:55:51;27.10;80.70
29281;DHT22;25048;49.590;11.026;2023-07-02T11:58:18;27.10;78.20
29281;DHT22;25048;49.590;11.026;2023-07-02T12:00:46;26.90;79.90
29281;DHT22;25048;49.590;11.026;2023-07-02T12:03:14;26.80;80.70
29281;DHT22;25048;49.590;11.026;2023-07-02T12:05:41;26.90;79.00
29281;DHT22;25048;49.590;11.026;2023-07-02T12:08:09;27.20;78.70
29281;DHT22;25048;49.590;11.026;2023-07-02T12:10:36;27.40;75.80
29281;DHT22;25048;49.590;11.026;2023-07-02T12:13:04;27.50;76.20
29281;DHT22;25048;49.590;11.026;2023-07-02T12:15:31;27.40;76.30
29281;DHT22;25048;49.590;11.026;2023-07-02T12:17:59;27.20;74.70
29281;DHT22;25048;49.590;11.026;2023-07-02T12:20:26;27.00;75.60
29281;DHT22;25048;49.590;11.026;2023-07-02T12:22:54;27.10;75.50
29281;DHT22;25048;49.590;11.026;2023-07-02T12:25:21;27.00;73.20
29281;DHT22;25048;49.590;11.026;2023-07-02T12:27:49;26.60;74.70
29281;DHT22;25048;49.590;11.026;2023-07-02T12:30:16;26.70;74.70
29281;DHT22;25048;49.590;11.026;2023-07-02T12:32:45;26.70;73.80
29281;DHT22;25048;49.590;11.026;2023-07-02T12:35:13;26.60;74.90
29281;DHT22;25048;49.590;11.026;2023-07-02T12:37:44;26.60;74.70
29281;DHT22;25048;49.590;11.026;2023-07-02T12:40:12;26.70;73.00
29281;DHT22;25048;49.590;11.026;2023-07-02T12:42:44;26.90;75.50
29281;DHT22;25048;49.590;11.026;2023-07-02T12:45:13;27.30;71.40
29281;DHT22;25048;49.590;11.026;2023-07-02T12:47:42;27.20;71.90
29281;DHT22;25048;49.590;11.026;2023-07-02T12:50:10;26.90;71.90
29281;DHT22;25048;49.590;11.026;2023-07-02T12:52:38;26.60;71.10
29281;DHT22;25048;49.590;11.026;2023-07-02T12:55:06;26.40;72.80
29281;DHT22;25048;49.590;11.026;2023-07-02T12:57:33;26.20;73.30
29281;DHT22;25048;49.590;11.026;2023-07-02T13:00:01;26.10;75.40
29281;DHT22;25048;49.590;11.026;2023-07-02T13:02:31;26.30;75.50
29281;DHT22;25048;49.590;11.026;2023-07-02T13:04:59;26.30;73.30
29281;DHT22;25048;49.590;11.026;2023-07-02T13:07:27;26.20;73.00
29281;DHT22;25048;49.590;11.026;2023-07-02T13:09:56;26.00;73.90
29281;DHT22;25048;49.590;11.026;2023-07-02T13:12:24;25.80;73.00
29281;DHT22;25048;49.590;11.026;2023-07-02T13:14:51;25.60;73.50
29281;DHT22;25048;49.590;11.026;2023-07-02T13:17:19;25.60;75.10
29281;DHT22;25048;49.590;11.026;2023-07-02T13:19:46;25.50;75.20
29281;DHT22;25048;49.590;11.026;2023-07-02T13:22:15;25.80;75.20
29281;DHT22;25048;49.590;11.026;2023-07-02T13:24:43;26.40;75.00
29281;DHT22;25048;49.590;11.026;2023-07-02T13:27:13;26.70;71.60
29281;DHT22;25048;49.590;11.026;2023-07-02T13:29:41;26.60;72.10
29281;DHT22;25048;49.590;11.026;2023-07-02T13:32:09;26.90;71.50
29281;DHT22;25048;49.590;11.026;2023-07-02T13:34:37;27.00;69.60
29281;DHT22;25048;49.590;11.026;2023-07-02T13:37:05;26.90;70.90
29281;DHT22;25048;49.590;11.026;2023-07-02T13:39:33;26.90;71.40
29281;DHT22;25048;49.590;11.026;2023-07-02T13:42:00;27.00;70.50
29281;DHT22;25048;49.590;11.026;2023-07-02T13:44:28;27.00;71.30
29281;DHT22;25048;49.590;11.026;2023-07-02T13:46:55;27.20;70.00
29281;DHT22;25048;49.590;11.026;2023-07-02T13:49:23;27.30;70.20
29281;DHT22;25048;49.590;11.026;2023-07-02T13:51:50;27.60;67.60
29281;DHT22;25048;49.590;11.026;2023-07-02T13:54:18;27.80;66.30
29281;DHT22;25048;49.590;11.026;2023-07-02T13:56:47;27.70;65.50
29281;DHT22;25048;49.590;11.026;2023-07-02T13:59:16;28.00;66.80
29281;DHT22;25048;49.590;11.026;2023-07-02T14:01:44;28.20;64.60
29281;DHT22;25048;49.590;11.026;2023-07-02T14:04:13;28.00;65.70
29281;DHT22;25048;49.590;11.026;2023-07-02T14:06:40;27.90;65.30
29281;DHT22;25048;49.590;11.026;2023-07-02T14:09:09;28.20;64.10
29281;DHT22;25048;49.590;11.026;2023-07-02T14:11:39;28.60;64.80
29281;DHT22;25048;49.590;11.026;2023-07-02T14:14:07;29.30;64.40
29281;DHT22;25048;49.590;11.026;2023-07-02T14:16:35;29.50;61.90
29281;DHT22;25048;49.590;11.026;2023-07-02T14:19:02;29.20;61.80
29281;DHT22;25048;49.590;11.026;2023-07-02T14:21:30;28.70;62.50
29281;DHT22;25048;49.590;11.026;2023-07-02T14:23:58;28.80;64.40
29281;DHT22;25048;49.590;11.026;2023-07-02T14:26:28;29.20;62.40
29281;DHT22;25048;49.590;11.026;2023-07-02T14:28:56;29.30;60.80
29281;DHT22;25048;49.590;11.026;2023-07-02T14:31:24;29.20;60.00
29281;DHT22;25048;49.590;11.026;2023-07-02T14:33:55;28.70;60.00
29281;DHT22;25048;49.590;11.026;2023-07-02T14:36:23;28.20;61.90
29281;DHT22;25048;49.590;11.026;2023-07-02T14:38:51;27.60;61.00
29281;DHT22;25048;49.590;11.026;2023-07-02T14:41:18;27.20;63.90
29281;DHT22;25048;49.590;11.026;2023-07-02T14:43:46;27.00;66.00
29281;DHT22;25048;49.590;11.026;2023-07-02T14:46:14;27.20;65.00
29281;DHT22;25048;49.590;11.026;2023-07-02T14:48:41;28.00;63.80
29281;DHT22;25048;49.590;11.026;2023-07-02T14:51:09;28.80;61.70
29281;DHT22;25048;49.590;11.026;2023-07-02T14:53:37;29.40;59.30
29281;DHT22;25048;49.590;11.026;2023-07-02T14:56:04;29.80;58.80
29281;DHT22;25048;49.590;11.026;2023-07-02T14:58:32;30.10;58.00
29281;DHT22;25048;49.590;11.026;2023-07-02T15:01:00;30.30;58.50
29281;DHT22;25048;49.590;11.026;2023-07-02T15:03:28;30.20;55.70
29281;DHT22;25048;49.590;11.026;2023-07-02T15:06:07;30.10;57.40
29281;DHT22;25048;49.590;11.026;2023-07-02T15:08:54;30.10;56.30
29281;DHT22;25048;49.590;11.026;2023-07-02T15:11:22;29.80;57.10
29281;DHT22;25048;49.590;11.026;2023-07-02T15:13:49;29.70;59.00
29281;DHT22;25048;49.590;11.026;2023-07-02T15:16:17;29.90;57.30
29281;DHT22;25048;49.590;11.026;2023-07-02T15:18:46;30.40;57.50
29281;DHT22;25048;49.590;11.026;2023-07-02T15:21:14;30.80;55.60
29281;DHT22;25048;49.590;11.026;2023-07-02T15:23:43;31.00;55.00